Airport View

Enter AWOS ICAO identifier for current METAR.

ex. KFNL

KISW 100354Z AUTO 36009KT 10SM OVC090 21/19 A2984 RMK AO2 RAE41 SLP101 P0000 T02110189

10 Jul 2020 04:22

Frequency: 126.575

Phone: 715-421-2120

Other Area AWOS: KSTE - KMFI - KCWA - KY50

TAF AMD KCWA 100245Z 1003/1024 30005KT P6SM -RA BKN010 BKN040 TEMPO 1003/1005 4SM -TSRA BR OVC025CB FM100800 30004KT P6SM SCT015 BKN035 FM101100 32008KT P6SM SCT025 BKN120 FM101500 32010G17KT P6SM SCT035